sensor_id;sensor_type;location;lat;lon;timestamp;P1;durP1;ratioP1;P2;durP2;ratioP2
68976;SDS011;56029;52.568;13.588;2022-10-31T00:02:20;21.43;;;13.30;;
68976;SDS011;56029;52.568;13.588;2022-10-31T00:04:45;22.53;;;13.37;;
68976;SDS011;56029;52.568;13.588;2022-10-31T00:07:11;21.57;;;13.67;;
68976;SDS011;56029;52.568;13.588;2022-10-31T00:09:36;22.37;;;13.60;;
68976;SDS011;56029;52.568;13.588;2022-10-31T00:12:02;22.25;;;13.52;;
68976;SDS011;56029;52.568;13.588;2022-10-31T00:14:27;42.90;;;17.23;;
68976;SDS011;56029;52.568;13.588;2022-10-31T00:16:53;38.00;;;18.05;;
68976;SDS011;56029;52.568;13.588;2022-10-31T00:19:18;29.60;;;16.00;;
68976;SDS011;56029;52.568;13.588;2022-10-31T00:21:44;28.53;;;15.87;;
68976;SDS011;56029;52.568;13.588;2022-10-31T00:24:10;30.20;;;15.80;;
68976;SDS011;56029;52.568;13.588;2022-10-31T00:26:36;31.83;;;16.88;;
68976;SDS011;56029;52.568;13.588;2022-10-31T00:29:01;37.08;;;18.38;;
68976;SDS011;56029;52.568;13.588;2022-10-31T00:31:27;33.67;;;17.13;;
68976;SDS011;56029;52.568;13.588;2022-10-31T00:33:53;34.42;;;18.17;;
68976;SDS011;56029;52.568;13.588;2022-10-31T00:36:19;41.10;;;18.70;;
68976;SDS011;56029;52.568;13.588;2022-10-31T00:38:45;39.70;;;19.13;;
68976;SDS011;56029;52.568;13.588;2022-10-31T00:41:13;37.05;;;18.17;;
68976;SDS011;56029;52.568;13.588;2022-10-31T00:43:40;45.10;;;19.90;;
68976;SDS011;56029;52.568;13.588;2022-10-31T00:46:06;47.90;;;20.33;;
68976;SDS011;56029;52.568;13.588;2022-10-31T00:48:32;47.63;;;19.97;;
68976;SDS011;56029;52.568;13.588;2022-10-31T00:50:57;39.47;;;18.93;;
68976;SDS011;56029;52.568;13.588;2022-10-31T00:53:23;32.78;;;17.42;;
68976;SDS011;56029;52.568;13.588;2022-10-31T00:55:49;35.63;;;17.83;;
68976;SDS011;56029;52.568;13.588;2022-10-31T00:58:14;37.20;;;18.60;;
68976;SDS011;56029;52.568;13.588;2022-10-31T01:00:40;37.13;;;17.47;;
68976;SDS011;56029;52.568;13.588;2022-10-31T01:03:05;42.50;;;19.73;;
68976;SDS011;56029;52.568;13.588;2022-10-31T01:05:31;34.25;;;18.67;;
68976;SDS011;56029;52.568;13.588;2022-10-31T01:07:56;41.20;;;18.97;;
68976;SDS011;56029;52.568;13.588;2022-10-31T01:10:22;43.47;;;20.07;;
68976;SDS011;56029;52.568;13.588;2022-10-31T01:12:48;38.50;;;19.60;;
68976;SDS011;56029;52.568;13.588;2022-10-31T01:15:21;42.63;;;21.55;;
68976;SDS011;56029;52.568;13.588;2022-10-31T01:17:47;40.80;;;20.05;;
68976;SDS011;56029;52.568;13.588;2022-10-31T01:20:14;42.55;;;20.15;;
68976;SDS011;56029;52.568;13.588;2022-10-31T01:22:40;46.57;;;20.23;;
68976;SDS011;56029;52.568;13.588;2022-10-31T01:25:07;40.70;;;19.73;;
68976;SDS011;56029;52.568;13.588;2022-10-31T01:27:34;39.17;;;20.65;;
68976;SDS011;56029;52.568;13.588;2022-10-31T01:29:59;42.87;;;20.27;;
68976;SDS011;56029;52.568;13.588;2022-10-31T01:32:26;39.55;;;19.65;;
68976;SDS011;56029;52.568;13.588;2022-10-31T01:34:54;36.70;;;19.63;;
68976;SDS011;56029;52.568;13.588;2022-10-31T01:37:19;34.92;;;19.45;;
68976;SDS011;56029;52.568;13.588;2022-10-31T01:39:45;35.23;;;19.00;;
68976;SDS011;56029;52.568;13.588;2022-10-31T01:42:15;39.25;;;19.80;;
68976;SDS011;56029;52.568;13.588;2022-10-31T01:47:15;42.20;;;21.38;;
68976;SDS011;56029;52.568;13.588;2022-10-31T01:49:46;37.15;;;21.17;;
68976;SDS011;56029;52.568;13.588;2022-10-31T01:55:07;35.08;;;21.55;;
68976;SDS011;56029;52.568;13.588;2022-10-31T01:57:47;35.97;;;21.02;;
68976;SDS011;56029;52.568;13.588;2022-10-31T02:00:14;35.55;;;20.60;;
68976;SDS011;56029;52.568;13.588;2022-10-31T02:02:41;34.83;;;21.03;;
68976;SDS011;56029;52.568;13.588;2022-10-31T02:05:09;33.37;;;20.10;;
68976;SDS011;56029;52.568;13.588;2022-10-31T02:07:41;34.80;;;20.05;;
68976;SDS011;56029;52.568;13.588;2022-10-31T02:10:11;34.72;;;19.90;;
68976;SDS011;56029;52.568;13.588;2022-10-31T02:12:36;31.80;;;18.73;;
68976;SDS011;56029;52.568;13.588;2022-10-31T02:15:04;29.90;;;18.75;;
68976;SDS011;56029;52.568;13.588;2022-10-31T02:17:30;31.08;;;18.73;;
68976;SDS011;56029;52.568;13.588;2022-10-31T02:22:26;29.60;;;17.90;;
68976;SDS011;56029;52.568;13.588;2022-10-31T02:27:57;29.40;;;17.15;;
68976;SDS011;56029;52.568;13.588;2022-10-31T02:33:45;26.13;;;16.20;;
68976;SDS011;56029;52.568;13.588;2022-10-31T02:36:21;27.03;;;17.47;;
68976;SDS011;56029;52.568;13.588;2022-10-31T02:39:01;29.60;;;17.85;;
68976;SDS011;56029;52.568;13.588;2022-10-31T02:41:35;30.42;;;18.67;;
68976;SDS011;56029;52.568;13.588;2022-10-31T02:44:30;26.85;;;17.25;;
68976;SDS011;56029;52.568;13.588;2022-10-31T02:47:03;28.20;;;16.95;;
68976;SDS011;56029;52.568;13.588;2022-10-31T02:49:36;26.30;;;16.80;;
68976;SDS011;56029;52.568;13.588;2022-10-31T02:52:26;27.60;;;16.60;;
68976;SDS011;56029;52.568;13.588;2022-10-31T02:54:53;25.15;;;16.17;;
68976;SDS011;56029;52.568;13.588;2022-10-31T02:57:20;24.35;;;16.10;;
68976;SDS011;56029;52.568;13.588;2022-10-31T03:00:00;28.10;;;16.13;;
68976;SDS011;56029;52.568;13.588;2022-10-31T03:02:32;25.98;;;16.23;;
68976;SDS011;56029;52.568;13.588;2022-10-31T03:05:07;23.95;;;15.88;;
68976;SDS011;56029;52.568;13.588;2022-10-31T03:07:42;23.13;;;14.70;;
68976;SDS011;56029;52.568;13.588;2022-10-31T03:10:26;23.20;;;15.10;;
68976;SDS011;56029;52.568;13.588;2022-10-31T03:15:50;25.50;;;15.35;;
68976;SDS011;56029;52.568;13.588;2022-10-31T03:19:05;24.45;;;15.60;;
68976;SDS011;56029;52.568;13.588;2022-10-31T03:23:37;27.42;;;17.48;;
68976;SDS011;56029;52.568;13.588;2022-10-31T03:26:04;25.70;;;15.97;;
68976;SDS011;56029;52.568;13.588;2022-10-31T03:28:37;26.75;;;16.30;;
68976;SDS011;56029;52.568;13.588;2022-10-31T03:31:06;29.27;;;16.98;;
68976;SDS011;56029;52.568;13.588;2022-10-31T03:33:35;30.75;;;17.48;;
68976;SDS011;56029;52.568;13.588;2022-10-31T03:36:03;26.42;;;16.52;;
68976;SDS011;56029;52.568;13.588;2022-10-31T03:38:33;28.47;;;17.57;;
68976;SDS011;56029;52.568;13.588;2022-10-31T03:41:01;30.55;;;18.67;;
68976;SDS011;56029;52.568;13.588;2022-10-31T03:43:32;32.33;;;19.05;;
68976;SDS011;56029;52.568;13.588;2022-10-31T03:46:01;31.77;;;19.10;;
68976;SDS011;56029;52.568;13.588;2022-10-31T03:48:28;30.52;;;18.52;;
68976;SDS011;56029;52.568;13.588;2022-10-31T03:54:44;27.50;;;17.52;;
68976;SDS011;56029;52.568;13.588;2022-10-31T03:57:05;30.33;;;17.50;;
68976;SDS011;56029;52.568;13.588;2022-10-31T03:59:41;31.30;;;17.90;;
68976;SDS011;56029;52.568;13.588;2022-10-31T04:02:14;29.30;;;18.08;;
68976;SDS011;56029;52.568;13.588;2022-10-31T04:04:43;31.13;;;18.17;;
68976;SDS011;56029;52.568;13.588;2022-10-31T04:07:10;29.90;;;18.63;;
68976;SDS011;56029;52.568;13.588;2022-10-31T04:09:38;30.45;;;18.85;;
68976;SDS011;56029;52.568;13.588;2022-10-31T04:12:08;28.23;;;18.47;;
68976;SDS011;56029;52.568;13.588;2022-10-31T04:14:38;28.88;;;19.48;;
68976;SDS011;56029;52.568;13.588;2022-10-31T04:17:07;28.95;;;18.92;;
68976;SDS011;56029;52.568;13.588;2022-10-31T04:19:34;29.30;;;18.67;;
68976;SDS011;56029;52.568;13.588;2022-10-31T04:22:00;28.63;;;18.33;;
68976;SDS011;56029;52.568;13.588;2022-10-31T04:24:26;28.15;;;17.88;;
68976;SDS011;56029;52.568;13.588;2022-10-31T04:26:51;27.37;;;18.03;;
68976;SDS011;56029;52.568;13.588;2022-10-31T04:29:17;27.00;;;18.13;;
68976;SDS011;56029;52.568;13.588;2022-10-31T04:31:42;27.38;;;17.83;;
68976;SDS011;56029;52.568;13.588;2022-10-31T04:34:08;25.53;;;17.67;;
68976;SDS011;56029;52.568;13.588;2022-10-31T04:36:33;28.53;;;18.93;;
68976;SDS011;56029;52.568;13.588;2022-10-31T04:38:59;28.77;;;18.93;;
68976;SDS011;56029;52.568;13.588;2022-10-31T04:41:24;26.87;;;18.50;;
68976;SDS011;56029;52.568;13.588;2022-10-31T04:43:50;27.60;;;18.67;;
68976;SDS011;56029;52.568;13.588;2022-10-31T04:46:15;26.80;;;18.30;;
68976;SDS011;56029;52.568;13.588;2022-10-31T04:48:41;27.70;;;17.80;;
68976;SDS011;56029;52.568;13.588;2022-10-31T04:51:06;28.63;;;17.80;;
68976;SDS011;56029;52.568;13.588;2022-10-31T04:53:32;27.45;;;17.90;;
68976;SDS011;56029;52.568;13.588;2022-10-31T04:55:58;26.50;;;16.83;;
68976;SDS011;56029;52.568;13.588;2022-10-31T04:58:25;26.70;;;18.40;;
68976;SDS011;56029;52.568;13.588;2022-10-31T05:00:54;27.40;;;17.23;;
68976;SDS011;56029;52.568;13.588;2022-10-31T05:03:20;27.60;;;17.67;;
68976;SDS011;56029;52.568;13.588;2022-10-31T05:05:46;27.00;;;18.03;;
68976;SDS011;56029;52.568;13.588;2022-10-31T05:08:12;27.50;;;17.95;;
68976;SDS011;56029;52.568;13.588;2022-10-31T05:10:38;27.88;;;17.67;;
68976;SDS011;56029;52.568;13.588;2022-10-31T05:13:04;29.17;;;19.20;;
68976;SDS011;56029;52.568;13.588;2022-10-31T05:15:30;30.17;;;18.27;;
68976;SDS011;56029;52.568;13.588;2022-10-31T05:17:55;30.60;;;18.53;;
68976;SDS011;56029;52.568;13.588;2022-10-31T05:20:22;34.38;;;20.35;;
68976;SDS011;56029;52.568;13.588;2022-10-31T05:22:50;36.55;;;20.88;;
68976;SDS011;56029;52.568;13.588;2022-10-31T05:25:17;37.25;;;20.92;;
68976;SDS011;56029;52.568;13.588;2022-10-31T05:27:45;36.60;;;20.60;;
68976;SDS011;56029;52.568;13.588;2022-10-31T05:30:13;39.72;;;22.02;;
68976;SDS011;56029;52.568;13.588;2022-10-31T05:32:41;39.47;;;22.20;;
68976;SDS011;56029;52.568;13.588;2022-10-31T05:35:10;39.05;;;22.20;;
68976;SDS011;56029;52.568;13.588;2022-10-31T05:37:37;37.95;;;21.60;;
68976;SDS011;56029;52.568;13.588;2022-10-31T05:40:03;37.20;;;21.13;;
68976;SDS011;56029;52.568;13.588;2022-10-31T05:42:29;43.05;;;23.00;;
68976;SDS011;56029;52.568;13.588;2022-10-31T05:44:55;46.50;;;23.33;;
68976;SDS011;56029;52.568;13.588;2022-10-31T05:47:21;46.00;;;23.73;;
68976;SDS011;56029;52.568;13.588;2022-10-31T05:49:47;39.47;;;21.75;;
68976;SDS011;56029;52.568;13.588;2022-10-31T05:52:13;40.87;;;21.10;;
68976;SDS011;56029;52.568;13.588;2022-10-31T05:54:39;41.28;;;22.58;;
68976;SDS011;56029;52.568;13.588;2022-10-31T05:57:05;38.57;;;20.57;;
68976;SDS011;56029;52.568;13.588;2022-10-31T05:59:30;39.13;;;20.92;;
68976;SDS011;56029;52.568;13.588;2022-10-31T06:01:55;35.90;;;20.00;;
68976;SDS011;56029;52.568;13.588;2022-10-31T06:04:21;36.33;;;20.03;;
68976;SDS011;56029;52.568;13.588;2022-10-31T06:06:47;42.25;;;20.77;;
68976;SDS011;56029;52.568;13.588;2022-10-31T06:09:12;42.37;;;21.63;;
68976;SDS011;56029;52.568;13.588;2022-10-31T06:11:38;37.00;;;20.20;;
68976;SDS011;56029;52.568;13.588;2022-10-31T06:14:04;36.92;;;20.90;;
68976;SDS011;56029;52.568;13.588;2022-10-31T06:16:30;38.20;;;21.38;;
68976;SDS011;56029;52.568;13.588;2022-10-31T06:18:55;35.93;;;20.47;;
68976;SDS011;56029;52.568;13.588;2022-10-31T06:21:21;40.07;;;21.50;;
68976;SDS011;56029;52.568;13.588;2022-10-31T06:23:46;41.50;;;21.45;;
68976;SDS011;56029;52.568;13.588;2022-10-31T06:26:12;44.83;;;22.33;;
68976;SDS011;56029;52.568;13.588;2022-10-31T06:28:37;35.53;;;20.47;;
68976;SDS011;56029;52.568;13.588;2022-10-31T06:31:03;39.50;;;20.73;;
68976;SDS011;56029;52.568;13.588;2022-10-31T06:33:28;44.33;;;21.42;;
68976;SDS011;56029;52.568;13.588;2022-10-31T06:35:54;38.73;;;20.87;;
68976;SDS011;56029;52.568;13.588;2022-10-31T06:38:19;37.38;;;20.17;;
68976;SDS011;56029;52.568;13.588;2022-10-31T06:40:45;35.80;;;19.93;;
68976;SDS011;56029;52.568;13.588;2022-10-31T06:43:10;37.17;;;19.67;;
68976;SDS011;56029;52.568;13.588;2022-10-31T06:45:36;35.88;;;19.50;;
68976;SDS011;56029;52.568;13.588;2022-10-31T06:48:02;35.63;;;20.00;;
68976;SDS011;56029;52.568;13.588;2022-10-31T06:50:28;32.63;;;19.40;;
68976;SDS011;56029;52.568;13.588;2022-10-31T06:52:55;35.45;;;19.67;;
68976;SDS011;56029;52.568;13.588;2022-10-31T06:55:21;34.35;;;19.52;;
68976;SDS011;56029;52.568;13.588;2022-10-31T06:57:57;38.63;;;20.27;;
68976;SDS011;56029;52.568;13.588;2022-10-31T07:00:24;34.30;;;19.03;;
68976;SDS011;56029;52.568;13.588;2022-10-31T07:02:52;35.97;;;19.98;;
68976;SDS011;56029;52.568;13.588;2022-10-31T07:05:21;35.05;;;19.98;;
68976;SDS011;56029;52.568;13.588;2022-10-31T07:07:47;35.05;;;19.55;;
68976;SDS011;56029;52.568;13.588;2022-10-31T07:10:17;35.17;;;19.92;;
68976;SDS011;56029;52.568;13.588;2022-10-31T07:12:42;34.97;;;20.10;;
68976;SDS011;56029;52.568;13.588;2022-10-31T07:15:08;33.17;;;19.43;;
68976;SDS011;56029;52.568;13.588;2022-10-31T07:17:34;38.83;;;20.25;;
68976;SDS011;56029;52.568;13.588;2022-10-31T07:19:59;38.90;;;20.60;;
68976;SDS011;56029;52.568;13.588;2022-10-31T07:22:25;35.87;;;18.97;;
68976;SDS011;56029;52.568;13.588;2022-10-31T07:24:56;34.43;;;18.90;;
68976;SDS011;56029;52.568;13.588;2022-10-31T07:27:22;34.20;;;19.52;;
68976;SDS011;56029;52.568;13.588;2022-10-31T07:29:47;34.43;;;18.77;;
68976;SDS011;56029;52.568;13.588;2022-10-31T07:32:13;35.95;;;19.33;;
68976;SDS011;56029;52.568;13.588;2022-10-31T07:34:38;29.77;;;17.73;;
68976;SDS011;56029;52.568;13.588;2022-10-31T07:37:04;29.47;;;18.10;;
68976;SDS011;56029;52.568;13.588;2022-10-31T07:39:29;33.57;;;18.17;;
68976;SDS011;56029;52.568;13.588;2022-10-31T07:41:58;31.65;;;18.02;;
68976;SDS011;56029;52.568;13.588;2022-10-31T07:44:24;30.95;;;17.88;;
68976;SDS011;56029;52.568;13.588;2022-10-31T07:46:49;31.83;;;18.30;;
68976;SDS011;56029;52.568;13.588;2022-10-31T07:49:15;28.03;;;17.27;;
68976;SDS011;56029;52.568;13.588;2022-10-31T07:51:40;30.25;;;18.40;;
68976;SDS011;56029;52.568;13.588;2022-10-31T07:54:06;31.60;;;18.10;;
68976;SDS011;56029;52.568;13.588;2022-10-31T07:56:31;35.20;;;19.27;;
68976;SDS011;56029;52.568;13.588;2022-10-31T07:58:56;34.30;;;18.73;;
68976;SDS011;56029;52.568;13.588;2022-10-31T08:01:22;30.95;;;17.55;;
68976;SDS011;56029;52.568;13.588;2022-10-31T08:03:47;30.27;;;17.53;;
68976;SDS011;56029;52.568;13.588;2022-10-31T08:06:13;32.25;;;18.00;;
68976;SDS011;56029;52.568;13.588;2022-10-31T08:08:39;34.00;;;19.00;;
68976;SDS011;56029;52.568;13.588;2022-10-31T08:11:04;33.93;;;18.60;;
68976;SDS011;56029;52.568;13.588;2022-10-31T08:13:30;32.50;;;19.08;;
68976;SDS011;56029;52.568;13.588;2022-10-31T08:15:57;31.47;;;18.93;;
68976;SDS011;56029;52.568;13.588;2022-10-31T08:18:28;31.70;;;18.83;;
68976;SDS011;56029;52.568;13.588;2022-10-31T08:20:54;31.95;;;19.10;;
68976;SDS011;56029;52.568;13.588;2022-10-31T08:23:20;33.73;;;19.40;;
68976;SDS011;56029;52.568;13.588;2022-10-31T08:25:45;31.17;;;18.57;;
68976;SDS011;56029;52.568;13.588;2022-10-31T08:28:12;32.22;;;19.65;;
68976;SDS011;56029;52.568;13.588;2022-10-31T08:30:40;37.10;;;20.42;;
68976;SDS011;56029;52.568;13.588;2022-10-31T08:33:10;34.47;;;19.27;;
68976;SDS011;56029;52.568;13.588;2022-10-31T08:35:37;33.63;;;19.67;;
68976;SDS011;56029;52.568;13.588;2022-10-31T08:38:03;35.33;;;19.23;;
68976;SDS011;56029;52.568;13.588;2022-10-31T08:40:30;34.40;;;20.05;;
68976;SDS011;56029;52.568;13.588;2022-10-31T08:42:57;36.72;;;20.50;;
68976;SDS011;56029;52.568;13.588;2022-10-31T08:45:24;37.87;;;20.23;;
68976;SDS011;56029;52.568;13.588;2022-10-31T08:47:49;35.20;;;20.42;;
68976;SDS011;56029;52.568;13.588;2022-10-31T08:50:15;35.88;;;20.42;;
68976;SDS011;56029;52.568;13.588;2022-10-31T08:52:41;36.93;;;20.33;;
68976;SDS011;56029;52.568;13.588;2022-10-31T08:55:07;38.28;;;21.00;;
68976;SDS011;56029;52.568;13.588;2022-10-31T08:57:32;37.47;;;21.13;;
68976;SDS011;56029;52.568;13.588;2022-10-31T08:59:58;38.42;;;21.50;;
68976;SDS011;56029;52.568;13.588;2022-10-31T09:02:23;36.33;;;20.87;;
68976;SDS011;56029;52.568;13.588;2022-10-31T09:04:49;41.00;;;21.23;;
68976;SDS011;56029;52.568;13.588;2022-10-31T09:07:14;38.93;;;20.67;;
68976;SDS011;56029;52.568;13.588;2022-10-31T09:09:40;36.60;;;19.88;;
68976;SDS011;56029;52.568;13.588;2022-10-31T09:12:05;34.90;;;20.30;;
68976;SDS011;56029;52.568;13.588;2022-10-31T09:14:31;33.60;;;19.13;;
68976;SDS011;56029;52.568;13.588;2022-10-31T09:16:56;36.20;;;19.77;;
68976;SDS011;56029;52.568;13.588;2022-10-31T09:19:22;34.60;;;19.97;;
68976;SDS011;56029;52.568;13.588;2022-10-31T09:21:47;35.90;;;20.10;;
68976;SDS011;56029;52.568;13.588;2022-10-31T09:24:13;34.83;;;20.70;;
68976;SDS011;56029;52.568;13.588;2022-10-31T09:26:38;36.13;;;19.90;;
68976;SDS011;56029;52.568;13.588;2022-10-31T09:29:04;32.97;;;19.70;;
68976;SDS011;56029;52.568;13.588;2022-10-31T09:31:29;38.63;;;20.60;;
68976;SDS011;56029;52.568;13.588;2022-10-31T09:33:55;37.50;;;20.90;;
68976;SDS011;56029;52.568;13.588;2022-10-31T09:36:20;38.17;;;21.33;;
68976;SDS011;56029;52.568;13.588;2022-10-31T09:38:46;36.57;;;20.30;;
68976;SDS011;56029;52.568;13.588;2022-10-31T09:44:04;36.70;;;20.58;;
68976;SDS011;56029;52.568;13.588;2022-10-31T09:52:15;38.37;;;20.73;;
68976;SDS011;56029;52.568;13.588;2022-10-31T09:54:48;36.88;;;20.60;;
68976;SDS011;56029;52.568;13.588;2022-10-31T09:57:18;35.90;;;20.60;;
68976;SDS011;56029;52.568;13.588;2022-10-31T09:59:49;37.70;;;20.40;;
68976;SDS011;56029;52.568;13.588;2022-10-31T10:02:19;38.67;;;20.43;;
68976;SDS011;56029;52.568;13.588;2022-10-31T10:10:14;35.88;;;20.67;;
68976;SDS011;56029;52.568;13.588;2022-10-31T10:15:32;37.10;;;21.27;;
68976;SDS011;56029;52.568;13.588;2022-10-31T10:20:57;35.53;;;19.90;;
68976;SDS011;56029;52.568;13.588;2022-10-31T10:23:35;34.15;;;19.77;;
68976;SDS011;56029;52.568;13.588;2022-10-31T10:26:20;33.15;;;20.33;;
68976;SDS011;56029;52.568;13.588;2022-10-31T10:28:49;33.80;;;20.37;;
68976;SDS011;56029;52.568;13.588;2022-10-31T10:31:21;37.05;;;21.05;;
68976;SDS011;56029;52.568;13.588;2022-10-31T10:34:08;35.92;;;20.25;;
68976;SDS011;56029;52.568;13.588;2022-10-31T10:36:44;35.92;;;20.17;;
68976;SDS011;56029;52.568;13.588;2022-10-31T10:39:41;36.65;;;20.85;;
68976;SDS011;56029;52.568;13.588;2022-10-31T10:42:13;38.83;;;20.50;;
68976;SDS011;56029;52.568;13.588;2022-10-31T10:44:59;39.38;;;21.40;;
68976;SDS011;56029;52.568;13.588;2022-10-31T10:47:56;37.97;;;21.20;;
68976;SDS011;56029;52.568;13.588;2022-10-31T10:50:35;35.03;;;20.90;;
68976;SDS011;56029;52.568;13.588;2022-10-31T10:56:11;37.43;;;20.90;;
68976;SDS011;56029;52.568;13.588;2022-10-31T10:58:42;36.67;;;21.30;;
68976;SDS011;56029;52.568;13.588;2022-10-31T11:01:12;35.45;;;20.67;;
68976;SDS011;56029;52.568;13.588;2022-10-31T11:03:38;36.30;;;20.25;;
68976;SDS011;56029;52.568;13.588;2022-10-31T11:06:04;38.00;;;20.70;;
68976;SDS011;56029;52.568;13.588;2022-10-31T11:08:41;40.33;;;20.40;;
68976;SDS011;56029;52.568;13.588;2022-10-31T11:11:49;35.47;;;20.17;;
68976;SDS011;56029;52.568;13.588;2022-10-31T11:14:02;38.22;;;20.90;;
68976;SDS011;56029;52.568;13.588;2022-10-31T11:16:32;32.63;;;19.73;;
68976;SDS011;56029;52.568;13.588;2022-10-31T11:19:08;36.13;;;20.23;;
68976;SDS011;56029;52.568;13.588;2022-10-31T11:21:36;34.13;;;19.83;;
68976;SDS011;56029;52.568;13.588;2022-10-31T11:26:36;36.67;;;20.98;;
68976;SDS011;56029;52.568;13.588;2022-10-31T11:29:03;35.83;;;19.98;;
68976;SDS011;56029;52.568;13.588;2022-10-31T11:31:30;38.63;;;19.53;;
68976;SDS011;56029;52.568;13.588;2022-10-31T11:34:00;38.42;;;20.35;;
68976;SDS011;56029;52.568;13.588;2022-10-31T11:36:29;33.30;;;20.38;;
68976;SDS011;56029;52.568;13.588;2022-10-31T11:38:56;34.50;;;20.48;;
68976;SDS011;56029;52.568;13.588;2022-10-31T11:41:25;33.92;;;19.50;;
68976;SDS011;56029;52.568;13.588;2022-10-31T11:43:55;34.43;;;20.00;;
68976;SDS011;56029;52.568;13.588;2022-10-31T11:46:33;34.05;;;19.30;;
68976;SDS011;56029;52.568;13.588;2022-10-31T11:49:11;36.13;;;19.80;;
68976;SDS011;56029;52.568;13.588;2022-10-31T11:52:00;36.22;;;18.95;;
68976;SDS011;56029;52.568;13.588;2022-10-31T11:54:30;36.15;;;19.52;;
68976;SDS011;56029;52.568;13.588;2022-10-31T11:57:00;33.20;;;19.23;;
68976;SDS011;56029;52.568;13.588;2022-10-31T11:59:29;33.08;;;20.35;;
68976;SDS011;56029;52.568;13.588;2022-10-31T12:01:57;33.10;;;19.55;;
68976;SDS011;56029;52.568;13.588;2022-10-31T12:04:27;35.70;;;18.70;;
68976;SDS011;56029;52.568;13.588;2022-10-31T12:07:06;33.15;;;18.30;;
68976;SDS011;56029;52.568;13.588;2022-10-31T12:09:33;38.38;;;20.20;;
68976;SDS011;56029;52.568;13.588;2022-10-31T12:14:32;31.67;;;19.30;;
68976;SDS011;56029;52.568;13.588;2022-10-31T12:17:13;33.45;;;19.05;;
68976;SDS011;56029;52.568;13.588;2022-10-31T12:22:22;35.10;;;20.30;;
68976;SDS011;56029;52.568;13.588;2022-10-31T12:27:56;31.07;;;19.60;;
68976;SDS011;56029;52.568;13.588;2022-10-31T12:36:29;32.30;;;20.25;;
68976;SDS011;56029;52.568;13.588;2022-10-31T12:41:51;34.13;;;19.03;;
68976;SDS011;56029;52.568;13.588;2022-10-31T12:47:36;36.10;;;20.25;;
68976;SDS011;56029;52.568;13.588;2022-10-31T12:58:45;37.20;;;19.83;;
68976;SDS011;56029;52.568;13.588;2022-10-31T13:03:51;31.25;;;19.38;;
68976;SDS011;56029;52.568;13.588;2022-10-31T13:06:24;34.58;;;19.67;;
68976;SDS011;56029;52.568;13.588;2022-10-31T13:08:57;37.57;;;20.43;;
68976;SDS011;56029;52.568;13.588;2022-10-31T13:11:28;36.53;;;20.75;;
68976;SDS011;56029;52.568;13.588;2022-10-31T13:14:12;33.33;;;19.50;;
68976;SDS011;56029;52.568;13.588;2022-10-31T13:16:58;33.75;;;20.10;;
68976;SDS011;56029;52.568;13.588;2022-10-31T13:19:27;32.45;;;19.48;;
68976;SDS011;56029;52.568;13.588;2022-10-31T13:22:05;36.73;;;20.43;;
68976;SDS011;56029;52.568;13.588;2022-10-31T13:24:38;35.83;;;20.15;;
68976;SDS011;56029;52.568;13.588;2022-10-31T13:27:14;37.17;;;19.98;;
68976;SDS011;56029;52.568;13.588;2022-10-31T13:32:24;38.92;;;19.85;;
68976;SDS011;56029;52.568;13.588;2022-10-31T13:34:53;33.60;;;19.33;;
68976;SDS011;56029;52.568;13.588;2022-10-31T13:42:39;37.55;;;19.63;;
68976;SDS011;56029;52.568;13.588;2022-10-31T13:45:15;34.90;;;19.55;;
68976;SDS011;56029;52.568;13.588;2022-10-31T13:47:42;35.27;;;19.60;;
68976;SDS011;56029;52.568;13.588;2022-10-31T13:52:43;35.47;;;19.60;;
68976;SDS011;56029;52.568;13.588;2022-10-31T13:55:33;33.60;;;19.20;;
68976;SDS011;56029;52.568;13.588;2022-10-31T13:58:21;34.75;;;19.75;;
68976;SDS011;56029;52.568;13.588;2022-10-31T14:06:34;35.10;;;19.95;;
68976;SDS011;56029;52.568;13.588;2022-10-31T14:09:02;34.97;;;20.13;;
68976;SDS011;56029;52.568;13.588;2022-10-31T14:11:28;33.00;;;20.35;;
68976;SDS011;56029;52.568;13.588;2022-10-31T14:13:55;34.13;;;19.60;;
68976;SDS011;56029;52.568;13.588;2022-10-31T14:16:24;41.25;;;20.65;;
68976;SDS011;56029;52.568;13.588;2022-10-31T14:19:35;34.72;;;20.52;;
68976;SDS011;56029;52.568;13.588;2022-10-31T14:21:46;34.28;;;20.23;;
68976;SDS011;56029;52.568;13.588;2022-10-31T14:24:14;36.60;;;20.15;;
68976;SDS011;56029;52.568;13.588;2022-10-31T14:26:50;37.40;;;21.43;;
68976;SDS011;56029;52.568;13.588;2022-10-31T14:29:21;34.80;;;19.88;;
68976;SDS011;56029;52.568;13.588;2022-10-31T14:31:57;34.35;;;20.30;;
68976;SDS011;56029;52.568;13.588;2022-10-31T14:34:27;37.28;;;20.38;;
68976;SDS011;56029;52.568;13.588;2022-10-31T14:37:03;36.72;;;20.23;;
68976;SDS011;56029;52.568;13.588;2022-10-31T14:42:48;33.90;;;20.40;;
68976;SDS011;56029;52.568;13.588;2022-10-31T14:50:59;35.20;;;21.35;;
68976;SDS011;56029;52.568;13.588;2022-10-31T14:56:08;33.05;;;19.73;;
68976;SDS011;56029;52.568;13.588;2022-10-31T14:58:37;34.40;;;21.00;;
68976;SDS011;56029;52.568;13.588;2022-10-31T15:01:05;33.35;;;20.15;;
68976;SDS011;56029;52.568;13.588;2022-10-31T15:03:42;34.97;;;20.73;;
68976;SDS011;56029;52.568;13.588;2022-10-31T15:06:13;34.83;;;20.50;;
68976;SDS011;56029;52.568;13.588;2022-10-31T15:08:45;35.72;;;21.58;;
68976;SDS011;56029;52.568;13.588;2022-10-31T15:11:22;34.05;;;20.80;;
68976;SDS011;56029;52.568;13.588;2022-10-31T15:13:50;38.40;;;20.50;;
68976;SDS011;56029;52.568;13.588;2022-10-31T15:16:28;34.50;;;20.70;;
68976;SDS011;56029;52.568;13.588;2022-10-31T15:19:04;33.80;;;19.33;;
68976;SDS011;56029;52.568;13.588;2022-10-31T15:21:33;37.85;;;21.85;;
68976;SDS011;56029;52.568;13.588;2022-10-31T15:24:01;42.28;;;23.40;;
68976;SDS011;56029;52.568;13.588;2022-10-31T15:26:38;39.42;;;22.67;;
68976;SDS011;56029;52.568;13.588;2022-10-31T15:29:18;42.45;;;23.23;;
68976;SDS011;56029;52.568;13.588;2022-10-31T15:31:59;46.40;;;24.53;;
68976;SDS011;56029;52.568;13.588;2022-10-31T15:34:43;44.85;;;24.40;;
68976;SDS011;56029;52.568;13.588;2022-10-31T15:37:13;50.10;;;26.25;;
68976;SDS011;56029;52.568;13.588;2022-10-31T15:39:41;53.22;;;25.85;;
68976;SDS011;56029;52.568;13.588;2022-10-31T15:42:16;52.28;;;27.23;;
68976;SDS011;56029;52.568;13.588;2022-10-31T15:44:44;51.37;;;27.33;;
68976;SDS011;56029;52.568;13.588;2022-10-31T15:47:18;52.33;;;26.70;;
68976;SDS011;56029;52.568;13.588;2022-10-31T15:49:50;56.30;;;27.80;;
68976;SDS011;56029;52.568;13.588;2022-10-31T15:52:27;53.85;;;27.50;;
68976;SDS011;56029;52.568;13.588;2022-10-31T15:55:15;57.50;;;28.90;;
68976;SDS011;56029;52.568;13.588;2022-10-31T15:57:43;56.00;;;27.70;;
68976;SDS011;56029;52.568;13.588;2022-10-31T16:00:21;54.65;;;28.63;;
68976;SDS011;56029;52.568;13.588;2022-10-31T16:02:47;57.95;;;28.67;;
68976;SDS011;56029;52.568;13.588;2022-10-31T16:05:17;62.20;;;31.23;;
68976;SDS011;56029;52.568;13.588;2022-10-31T16:07:51;60.53;;;30.10;;
68976;SDS011;56029;52.568;13.588;2022-10-31T16:10:21;65.95;;;30.70;;